Nattavaara, Sweden

4:43 PM CET on December 25, 2014 (GMT +0100)
Gallivare | Change Station
CLOSE
Current Station
Airport
Location: Gallivare,
Elevation: 1027 ft
Nearby Weather Stations

Elev 1027 ft 67.13 °N, 20.81 °E | Updated 23 minutes ago

Fog
Fog
14 °F
Feels Like 3 °F
N
8
Wind Variable Wind from NW
Gusts mph

Today
High -- | Low -- °F
--% Chance of Precip.
Yesterday
High -- | Low -- °F
Precip. -- in
10:36 AM 12:35 PM
Waxing Crescent, 17% visible
Pressure 29.56 in
Visibility -9999.0 miles
Clouds
Windchill 3 °F
Dew Point 9 °F
Humidity 79%
Rainfall 0.00 in
Snow Depth Not available.
UV Not available.
Pollen Not available.
Air Quality Not available.
Flu Activity Not available.
METAR ESNG 251520Z AUTO 31007KT //// R30///// ////// M10/M13 Q1001

More Conditions Fewer Conditions

Pressure 29.56 in
Visibility -9999.0 miles
Clouds
Windchill 3 °F
Dew Point 9 °F
Humidity 79%
Rainfall 0.00 in
Snow Depth Not available.
UV Not available.
Pollen Not available.
Air Quality Not available.
Flu Activity Not available.
METAR ESNG 251520Z AUTO 31007KT //// R30///// ////// M10/M13 Q1001

More Conditions Fewer Conditions

10-Day Weather Forecast

Almanac

Astronomy

Dec. 25, 2014 Rise Set
Actual Time
Civil Twilight
Nautical Twilight
Astronomical Twilight
Moon
Length of Visible Light
Length of Day
Tomorrow will be .
, % of the Moon is Illuminated

Today's Extremes

Country Highs Country Lows

Community

WunderPhotos

Upload Photos

1,780,315 photos uploaded!

WunderBlogs® & News

Nearby

Air Quality

  Air Quality AQ Index Pollutant
Not available.

Snow Depth

Station Depth Elevation

Earthquake Activity

City Distance Mag. Time & Date
Minimum magnitude displayed is 2.5.

Coastal Water Temperatures

Place Temperature

Nearby Weather Stations